Time;durP1;ratioP1;P1;durP2;ratioP2;P2;SDS_P1;SDS_P2;PMS_P1;PMS_P2;Temp;Humidity;BMP_temperature;BMP_pressure;BME280_temperature;BME280_humidity;BME280_pressure;Samples;Min_cycle;Max_cycle;Signal;HPM_P1;HPM_P2
2022/05/20 00:02:00;;;;;;;8.70;1.92;;;;;;;16.66;43.13;99532.47;8204416;28;20047;-73
2022/05/20 00:06:00;;;;;;;8.40;1.95;;;;;;;16.61;43.23;99535.41;8204024;28;20077;-73
2022/05/20 00:10:02;;;;;;;6.90;2.22;;;;;;;16.56;43.30;99527.41;8201665;28;20055;-73
2022/05/20 00:14:05;;;;;;;7.60;2.45;;;;;;;16.45;43.49;99537.94;8203345;28;20055;-72
2022/05/20 00:18:08;;;;;;;8.23;1.88;;;;;;;16.39;43.69;99537.38;8204183;28;20048;-73
2022/05/20 00:22:11;;;;;;;10.70;2.40;;;;;;;16.33;43.80;99546.91;8169284;28;20055;-73
2022/05/20 00:26:12;;;;;;;7.07;1.88;;;;;;;16.31;43.72;99554.63;8203421;28;20051;-73
2022/05/20 00:30:13;;;;;;;7.25;2.30;;;;;;;16.26;43.98;99546.66;8203428;28;20078;-73
2022/05/20 00:34:14;;;;;;;5.43;1.85;;;;;;;16.23;43.86;99552.75;8203536;28;20444;-72
2022/05/20 00:38:16;;;;;;;10.35;1.88;;;;;;;16.18;44.12;99555.69;8202623;28;20043;-72
2022/05/20 00:42:18;;;;;;;12.50;2.45;;;;;;;16.10;44.17;99553.84;8194937;28;20164;-74
2022/05/20 00:46:22;;;;;;;10.25;2.55;;;;;;;16.00;44.33;99554.25;8196180;28;20044;-73
2022/05/20 00:50:23;;;;;;;9.00;2.30;;;;;;;15.95;44.62;99543.56;8202625;28;20056;-73
2022/05/20 00:54:28;;;;;;;9.68;2.20;;;;;;;15.94;44.58;99550.13;8232980;28;20075;-73
2022/05/20 00:58:29;;;;;;;12.73;1.90;;;;;;;15.97;44.45;99549.47;8192442;28;20051;-72
2022/05/20 01:02:32;;;;;;;7.68;1.90;;;;;;;15.91;44.56;99550.81;8172804;29;20083;-73
2022/05/20 01:06:33;;;;;;;9.98;1.85;;;;;;;15.90;44.60;99541.84;8217140;28;20047;-73
2022/05/20 01:10:34;;;;;;;7.55;1.73;;;;;;;15.85;44.46;99541.25;8202201;28;20574;-72
2022/05/20 01:14:36;;;;;;;5.85;1.83;;;;;;;15.89;44.32;99547.63;8216619;28;20079;-74
2022/05/20 01:18:39;;;;;;;9.80;1.80;;;;;;;15.78;44.93;99551.88;8201283;28;20051;-73
2022/05/20 01:22:41;;;;;;;8.77;2.00;;;;;;;15.73;45.08;99543.91;8199323;28;20050;-73
2022/05/20 01:26:41;;;;;;;7.90;2.00;;;;;;;15.70;44.91;99550.03;8219648;28;20051;-74
2022/05/20 01:30:50;;;;;;;6.85;2.08;;;;;;;15.68;44.97;99552.28;8199996;28;20450;-72
2022/05/20 01:34:51;;;;;;;4.90;1.90;;;;;;;15.58;45.25;99554.25;8201479;28;20508;-72
2022/05/20 01:38:53;;;;;;;6.65;2.15;;;;;;;15.53;45.32;99557.19;8200764;28;20503;-74
2022/05/20 01:43:04;;;;;;;8.75;1.83;;;;;;;15.46;45.83;99556.88;8201219;28;20051;-72
2022/05/20 01:47:17;;;;;;;7.78;1.77;;;;;;;15.43;46.17;99546.66;8199822;28;20055;-75
2022/05/20 01:51:19;;;;;;;4.40;1.70;;;;;;;15.39;46.10;99556.56;8198962;29;20057;-72
2022/05/20 01:55:46;;;;;;;6.47;1.83;;;;;;;15.41;46.42;99558.97;8200650;28;20051;-72
2022/05/20 01:59:51;;;;;;;14.57;2.13;;;;;;;15.41;46.50;99554.34;8200493;28;20146;-73
2022/05/20 02:03:55;;;;;;;5.65;1.88;;;;;;;15.50;46.21;99552.34;8199350;28;20057;-72
2022/05/20 02:08:04;;;;;;;10.30;2.45;;;;;;;15.49;46.29;99556.19;8197993;28;20055;-73
2022/05/20 02:12:06;;;;;;;8.60;2.55;;;;;;;15.56;46.24;99561.16;8182021;28;20074;-73
2022/05/20 02:16:12;;;;;;;6.22;2.10;;;;;;;15.57;46.61;99557.31;8200096;28;20427;-73
2022/05/20 02:20:24;;;;;;;6.63;2.10;;;;;;;15.66;46.15;99559.97;8198363;28;20142;-73
2022/05/20 02:24:27;;;;;;;11.90;2.03;;;;;;;15.71;46.23;99557.03;8198363;28;20047;-73
2022/05/20 02:28:33;;;;;;;4.00;2.08;;;;;;;15.76;45.95;99567.72;8214631;28;20483;-73
2022/05/20 02:32:38;;;;;;;12.73;2.10;;;;;;;15.82;46.30;99564.50;8199556;28;20095;-73
2022/05/20 02:36:40;;;;;;;12.30;2.50;;;;;;;16.11;45.79;99571.81;8199560;28;20407;-72
2022/05/20 02:40:47;;;;;;;7.30;2.15;;;;;;;16.34;45.71;99564.84;8197368;28;20519;-72
2022/05/20 02:44:48;;;;;;;12.38;1.85;;;;;;;16.53;45.27;99566.28;8199105;28;20078;-72
2022/05/20 02:48:49;;;;;;;6.70;1.80;;;;;;;16.65;45.25;99569.06;8197156;28;20078;-74
2022/05/20 02:52:50;;;;;;;5.65;2.55;;;;;;;16.75;45.35;99568.63;8199846;28;20058;-73
2022/05/20 02:56:51;;;;;;;5.55;2.08;;;;;;;16.88;45.64;99572.97;8199098;28;20106;-73
2022/05/20 03:05:12;;;;;;;7.03;1.92;;;;;;;17.00;45.77;99564.78;8199604;28;20051;-74
2022/05/20 03:09:15;;;;;;;6.45;2.47;;;;;;;17.04;46.44;99576.63;8198311;28;20054;-73
2022/05/20 03:13:17;;;;;;;4.25;2.00;;;;;;;17.11;46.54;99587.78;8199146;28;20126;-75
2022/05/20 03:17:18;;;;;;;16.30;2.47;;;;;;;17.12;47.03;99578.47;8199118;28;20280;-72
2022/05/20 03:21:19;;;;;;;10.93;2.42;;;;;;;17.18;47.79;99577.06;8200639;28;20106;-73
2022/05/20 03:25:20;;;;;;;10.27;2.80;;;;;;;17.31;50.19;99570.47;8182753;28;20063;-72
2022/05/20 03:29:21;;;;;;;9.45;2.40;;;;;;;17.57;51.54;99582.97;8198950;28;20050;-73
2022/05/20 03:33:22;;;;;;;8.15;2.42;;;;;;;17.72;51.73;99596.75;8203743;29;20539;-73
2022/05/20 03:37:24;;;;;;;7.90;2.60;;;;;;;17.82;52.48;99600.94;8216023;28;20051;-73
2022/05/20 03:41:27;;;;;;;3.42;2.47;;;;;;;17.96;53.05;99600.59;8227535;28;20051;-73
2022/05/20 03:45:28;;;;;;;7.10;2.15;;;;;;;17.98;53.23;99599.09;8203319;28;20132;-73
2022/05/20 03:49:30;;;;;;;8.73;2.63;;;;;;;18.00;53.52;99602.28;8216228;28;20400;-72
2022/05/20 03:53:31;;;;;;;5.55;2.40;;;;;;;17.99;53.91;99603.41;8208011;28;20043;-72
2022/05/20 03:57:32;;;;;;;11.07;2.72;;;;;;;18.01;54.50;99590.22;8208295;28;20543;-73
2022/05/20 04:05:54;;;;;;;11.30;2.92;;;;;;;18.10;55.81;99617.38;8173243;29;20122;-74
2022/05/20 04:09:55;;;;;;;11.27;3.15;;;;;;;18.06;56.12;99611.84;8200130;28;20050;-74
2022/05/20 04:13:56;;;;;;;10.25;3.10;;;;;;;18.05;56.52;99610.25;8183394;29;20504;-73
2022/05/20 04:17:56;;;;;;;7.05;3.00;;;;;;;18.06;56.86;99617.31;8180271;28;20126;-73
2022/05/20 04:22:08;;;;;;;9.95;2.75;;;;;;;18.08;57.36;99609.53;8199713;29;20063;-73
2022/05/20 04:26:10;;;;;;;18.55;2.65;;;;;;;18.07;57.91;99618.91;8198289;28;20039;-73
2022/05/20 04:30:13;;;;;;;17.52;3.22;;;;;;;18.08;58.28;99625.16;8175735;28;20419;-72
2022/05/20 04:34:14;;;;;;;8.50;3.00;;;;;;;18.08;59.03;99631.41;8173805;28;20515;-72
2022/05/20 04:38:15;;;;;;;13.27;3.30;;;;;;;18.12;59.53;99628.78;8199480;28;20102;-73
2022/05/20 04:50:56;;;;;;;;;;;;;;;18.29;60.46;99635.91;8177829;29;20043;-73
2022/05/20 04:54:57;;;;;;;10.25;3.03;;;;;;;18.35;60.78;99639.97;8173005;29;20463;-74
2022/05/20 04:58:58;;;;;;;5.97;2.63;;;;;;;18.39;60.81;99651.84;8177789;29;20321;-73
2022/05/20 05:02:59;;;;;;;9.93;3.15;;;;;;;18.48;60.83;99655.22;8177936;29;20043;-73
2022/05/20 05:07:00;;;;;;;15.63;3.47;;;;;;;18.61;60.85;99654.06;8171911;29;20058;-73
2022/05/20 05:11:01;;;;;;;7.53;2.55;;;;;;;18.73;60.72;99645.78;8181531;28;20563;-73
2022/05/20 05:15:03;;;;;;;9.85;3.28;;;;;;;18.86;60.81;99654.72;8176647;28;20486;-72
2022/05/20 05:19:05;;;;;;;9.45;2.90;;;;;;;18.98;60.95;99669.13;8174728;28;20478;-72
2022/05/20 05:23:06;;;;;;;11.32;3.15;;;;;;;19.11;60.79;99666.31;8188505;29;20058;-73
2022/05/20 05:27:07;;;;;;;7.70;2.78;;;;;;;19.11;60.83;99671.81;8193415;28;20048;-73
2022/05/20 05:31:09;;;;;;;6.00;2.53;;;;;;;19.15;61.00;99667.22;8171300;28;20583;-73
2022/05/20 05:35:16;;;;;;;8.60;3.35;;;;;;;19.22;61.15;99667.41;8187461;29;20090;-74
2022/05/20 05:39:16;;;;;;;6.78;2.80;;;;;;;19.32;61.33;99666.88;8173541;29;20551;-73
2022/05/20 05:43:18;;;;;;;10.55;2.50;;;;;;;19.43;61.52;99670.69;8171344;29;20048;-73
2022/05/20 05:47:18;;;;;;;9.80;2.95;;;;;;;19.47;61.54;99671.59;8212866;28;20138;-75
2022/05/20 05:51:20;;;;;;;8.60;3.10;;;;;;;19.35;62.25;99671.66;8201027;28;20059;-74
2022/05/20 05:55:20;;;;;;;11.38;3.20;;;;;;;19.20;63.04;99664.22;8199633;28;20508;-73
2022/05/20 05:59:21;;;;;;;6.30;3.38;;;;;;;19.05;63.77;99667.72;8200818;28;20499;-73
2022/05/20 06:03:23;;;;;;;9.38;3.40;;;;;;;18.88;64.45;99669.63;8200741;28;20075;-73
2022/05/20 06:07:24;;;;;;;9.65;3.00;;;;;;;18.85;64.93;99662.16;8200363;28;20055;-73
2022/05/20 06:11:25;;;;;;;7.13;2.88;;;;;;;18.99;64.89;99665.25;8197991;28;20146;-73
2022/05/20 06:15:26;;;;;;;6.97;2.90;;;;;;;19.28;64.61;99666.00;8198240;28;20047;-73
2022/05/20 06:19:29;;;;;;;8.20;3.67;;;;;;;19.49;64.12;99669.28;8200039;28;20066;-72
2022/05/20 06:23:30;;;;;;;13.02;3.50;;;;;;;19.71;63.72;99668.66;8200169;28;20066;-73
2022/05/20 06:27:35;;;;;;;7.90;3.40;;;;;;;19.88;64.06;99677.66;8200242;28;20067;-73
2022/05/20 06:31:36;;;;;;;23.67;3.78;;;;;;;20.01;63.47;99670.91;8199718;28;20415;-74
2022/05/20 06:39:57;;;;;;;8.25;3.15;;;;;;;20.26;63.39;99683.19;8199705;28;20052;-74
2022/05/20 06:44:02;;;;;;;6.93;3.30;;;;;;;20.42;62.40;99675.75;8199862;28;20175;-75
2022/05/20 06:48:05;;;;;;;12.35;3.13;;;;;;;20.54;62.30;99672.88;8199905;28;20145;-72
2022/05/20 06:52:06;;;;;;;5.65;3.03;;;;;;;20.65;62.30;99673.88;8197746;28;20065;-73
2022/05/20 06:56:08;;;;;;;10.07;3.00;;;;;;;20.74;62.07;99665.41;8199291;28;20043;-73
2022/05/20 07:00:11;;;;;;;4.90;3.20;;;;;;;20.75;61.67;99671.69;8199824;28;20059;-73
2022/05/20 07:04:12;;;;;;;6.45;3.00;;;;;;;20.85;61.60;99677.38;8200502;28;20055;-73
2022/05/20 07:08:14;;;;;;;10.20;3.30;;;;;;;21.02;61.46;99687.13;8206011;28;20070;-75
2022/05/20 07:12:15;;;;;;;9.02;3.45;;;;;;;21.04;61.16;99679.31;8205429;28;20051;-74
2022/05/20 07:16:15;;;;;;;5.45;3.00;;;;;;;21.21;61.81;99673.38;8205772;28;20047;-74
2022/05/20 07:20:17;;;;;;;5.95;3.00;;;;;;;21.38;60.90;99678.38;8205787;28;20055;-73
2022/05/20 07:24:17;;;;;;;6.68;3.63;;;;;;;21.46;60.26;99669.13;8219538;28;20071;-74
2022/05/20 07:28:19;;;;;;;6.70;3.10;;;;;;;21.49;61.20;99668.38;8205296;28;20460;-73
2022/05/20 07:32:20;;;;;;;6.75;4.15;;;;;;;21.52;60.39;99683.31;8205833;28;20051;-72
2022/05/20 07:36:22;;;;;;;9.70;3.30;;;;;;;21.66;60.21;99677.28;8204871;28;20106;-73
2022/05/20 07:40:23;;;;;;;4.88;3.00;;;;;;;21.81;59.77;99681.81;8205295;28;20452;-73
2022/05/20 07:44:26;;;;;;;5.10;3.35;;;;;;;21.86;59.05;99676.00;8205082;28;20051;-73
2022/05/20 07:48:27;;;;;;;7.10;3.05;;;;;;;21.95;59.26;99687.56;8204339;28;20495;-74
2022/05/20 07:56:53;;;;;;;8.13;2.83;;;;;;;22.21;57.91;99693.03;8204120;28;20054;-74
2022/05/20 08:00:58;;;;;;;5.78;2.42;;;;;;;22.31;57.08;99686.13;8202320;29;20061;-73
2022/05/20 08:05:01;;;;;;;7.60;2.90;;;;;;;22.37;56.68;99678.31;8205043;28;20074;-73
2022/05/20 08:09:02;;;;;;;7.85;3.00;;;;;;;22.49;56.71;99686.34;8203382;28;20055;-73
2022/05/20 08:13:03;;;;;;;9.80;2.60;;;;;;;22.63;55.87;99692.03;8202175;29;20063;-73
2022/05/20 08:17:05;;;;;;;6.07;2.40;;;;;;;22.75;56.10;99689.03;8203107;28;20499;-74
2022/05/20 08:21:05;;;;;;;4.22;2.60;;;;;;;22.89;56.17;99689.22;8174841;29;20063;-74
2022/05/20 08:25:07;;;;;;;4.85;2.58;;;;;;;23.04;55.59;99685.44;8181423;29;20499;-75
2022/05/20 08:29:11;;;;;;;3.85;2.42;;;;;;;23.11;53.96;99680.00;8203529;28;20082;-74
2022/05/20 08:33:12;;;;;;;5.97;2.20;;;;;;;23.25;52.85;99673.03;8203712;28;20051;-73
2022/05/20 08:37:14;;;;;;;10.05;2.50;;;;;;;23.35;53.10;99666.84;8204010;28;20146;-74
2022/05/20 08:41:21;;;;;;;6.90;2.42;;;;;;;23.48;52.97;99670.91;8203553;28;20063;-73
2022/05/20 08:45:25;;;;;;;25.65;3.22;;;;;;;23.58;53.18;99681.25;8202161;28;20051;-73
2022/05/20 08:49:26;;;;;;;8.32;2.40;;;;;;;23.74;52.00;99667.97;8192103;28;20086;-73
2022/05/20 08:53:46;;;;;;;5.72;2.53;;;;;;;23.94;52.07;99668.50;8175520;29;20047;-73
2022/05/20 08:57:59;;;;;;;5.10;2.38;;;;;;;24.05;52.36;99671.34;8174191;29;20043;-73
2022/05/20 09:02:00;;;;;;;4.03;2.20;;;;;;;24.36;50.91;99665.22;8200815;28;20091;-72
2022/05/20 09:06:08;;;;;;;5.35;2.40;;;;;;;24.41;49.96;99667.59;8170369;29;20083;-72
2022/05/20 09:10:09;;;;;;;9.38;2.53;;;;;;;24.53;50.28;99670.03;8221298;28;20063;-73
2022/05/20 09:18:40;;;;;;;10.48;2.35;;;;;;;24.74;49.99;99664.59;8217079;28;20431;-73
2022/05/20 09:22:41;;;;;;;4.00;2.17;;;;;;;24.73;49.93;99657.47;8171038;29;20139;-73
2022/05/20 09:26:54;;;;;;;3.30;2.10;;;;;;;24.73;50.44;99656.69;8190513;28;20052;-72
2022/05/20 09:31:26;;;;;;;3.20;2.03;;;;;;;24.76;49.32;99645.63;8167034;29;20040;-73
2022/05/20 09:35:34;;;;;;;13.15;3.38;;;;;;;25.07;49.10;99648.88;8179055;28;20059;-75
2022/05/20 09:39:39;;;;;;;2.72;2.17;;;;;;;25.21;47.66;99648.91;8170995;29;20102;-72
2022/05/20 09:43:43;;;;;;;8.13;2.20;;;;;;;25.33;47.19;99642.97;8184361;28;20059;-72
2022/05/20 09:47:51;;;;;;;3.00;2.10;;;;;;;25.42;46.29;99632.34;8167954;29;20054;-74
2022/05/20 09:51:55;;;;;;;4.18;2.20;;;;;;;25.53;46.32;99633.13;8171131;29;20139;-73
2022/05/20 09:56:18;;;;;;;4.60;2.15;;;;;;;25.55;46.28;99633.53;8177909;29;20476;-72
2022/05/20 10:00:26;;;;;;;4.03;1.90;;;;;;;25.49;47.27;99621.25;8178736;29;20103;-73
2022/05/20 10:05:05;;;;;;;5.05;2.17;;;;;;;25.92;47.33;99616.47;8157851;29;20048;-73
2022/05/20 10:09:15;;;;;;;8.50;2.22;;;;;;;25.81;46.13;99617.69;8086740;29;20568;-72
2022/05/20 10:13:54;;;;;;;3.35;1.90;;;;;;;26.06;46.81;99621.19;8102321;29;20394;-73
2022/05/20 10:18:22;;;;;;;4.95;1.90;;;;;;;26.28;45.67;99625.47;8071351;29;20061;-72
2022/05/20 10:22:43;;;;;;;5.70;2.42;;;;;;;26.03;45.32;99621.97;8055782;29;20185;-73
2022/05/20 10:26:55;;;;;;;4.38;2.58;;;;;;;25.80;44.97;99624.44;8055391;29;20045;-72
2022/05/20 10:35:23;;;;;;;3.30;2.10;;;;;;;26.06;45.52;99604.59;8071007;29;20052;-72
2022/05/20 10:39:26;;;;;;;;;;;;;;;26.01;45.10;99613.31;8069994;29;20463;-73
2022/05/20 10:48:34;;;;;;;3.55;2.15;;;;;;;25.97;44.05;99606.97;8070862;29;20524;-72
2022/05/20 10:53:08;;;;;;;3.58;1.80;;;;;;;26.01;44.66;99602.25;8076564;29;20512;-72
2022/05/20 10:57:37;;;;;;;2.97;1.83;;;;;;;26.25;44.72;99604.16;8119156;29;20040;-72
2022/05/20 11:02:21;;;;;;;3.85;2.20;;;;;;;26.69;43.61;99586.91;8123453;29;20055;-73
2022/05/20 11:06:36;;;;;;;3.65;2.30;;;;;;;26.68;43.72;99595.63;8177029;28;20043;-74
2022/05/20 11:10:46;;;;;;;4.20;2.00;;;;;;;26.62;42.49;99594.47;8201665;28;20492;-73
2022/05/20 11:15:00;;;;;;;5.05;1.88;;;;;;;26.56;43.05;99587.78;8189389;28;20047;-73
2022/05/20 11:19:31;;;;;;;5.40;2.20;;;;;;;27.04;42.78;99574.81;8197280;28;20047;-73
2022/05/20 11:23:44;;;;;;;2.53;1.83;;;;;;;27.39;42.20;99589.59;8199537;28;20146;-73
2022/05/20 11:27:56;;;;;;;3.97;2.20;;;;;;;27.18;42.36;99574.69;8191689;28;20142;-72
2022/05/20 11:32:02;;;;;;;5.13;2.00;;;;;;;27.40;42.04;99580.06;8199560;28;20047;-74
2022/05/20 11:36:22;;;;;;;7.10;2.08;;;;;;;27.75;40.82;99574.19;8198887;28;20087;-73
2022/05/20 11:40:42;;;;;;;8.32;2.17;;;;;;;27.97;40.03;99575.50;8199192;28;20054;-74
2022/05/20 11:44:53;;;;;;;9.25;1.88;;;;;;;27.64;40.58;99567.97;8199033;28;20495;-73
2022/05/20 11:49:14;;;;;;;10.45;1.95;;;;;;;27.47;40.90;99571.69;8199165;28;20058;-73
2022/05/20 11:53:26;;;;;;;4.47;2.10;;;;;;;27.33;41.65;99552.41;8217463;28;20487;-73
2022/05/20 11:57:33;;;;;;;7.07;2.00;;;;;;;27.22;41.59;99558.84;8203011;28;20122;-74
2022/05/20 12:01:35;;;;;;;6.45;2.10;;;;;;;27.20;42.69;99561.22;8197633;28;20043;-74
2022/05/20 12:05:39;;;;;;;5.85;2.28;;;;;;;27.15;42.05;99553.34;8219340;28;20126;-74
2022/05/20 12:09:46;;;;;;;5.60;2.30;;;;;;;27.30;41.04;99554.78;8214661;28;20559;-74
2022/05/20 12:14:02;;;;;;;7.00;2.17;;;;;;;27.33;41.85;99550.44;8232780;28;20560;-73
2022/05/20 12:27:40;;;;;;;5.15;2.13;;;;;;;27.37;43.95;99522.66;8078482;29;20509;-74
2022/05/20 12:31:48;;;;;;;6.28;2.60;;;;;;;27.75;42.81;99521.47;8064198;29;20040;-73
2022/05/20 12:36:28;;;;;;;4.95;2.22;;;;;;;28.13;40.67;99528.53;8074550;29;20553;-76
2022/05/20 12:40:30;;;;;;;4.60;2.40;;;;;;;28.09;40.01;99511.13;7953466;29;20115;-74
2022/05/20 12:44:36;;;;;;;3.33;1.92;;;;;;;28.19;39.68;99497.53;7955603;29;20055;-74
2022/05/20 12:48:37;;;;;;;7.55;2.13;;;;;;;28.00;39.44;99496.97;7953855;29;20061;-74
2022/05/20 12:52:49;;;;;;;5.28;2.15;;;;;;;28.01;40.21;99501.34;7956946;29;20055;-74
2022/05/20 12:57:14;;;;;;;9.18;2.03;;;;;;;28.31;40.45;99494.19;7939755;29;20081;-74
2022/05/20 13:01:15;;;;;;;5.03;2.17;;;;;;;28.34;39.74;99493.38;7980966;29;20144;-74
2022/05/20 13:05:36;;;;;;;11.38;2.45;;;;;;;27.67;41.03;99483.91;8066838;29;20049;-73
2022/05/20 13:09:41;;;;;;;5.32;1.88;;;;;;;27.49;40.38;99483.31;8072875;29;20490;-74
2022/05/20 13:13:45;;;;;;;;;;;;;;;27.56;40.19;99472.13;8110572;29;20048;-74
2022/05/20 13:17:59;;;;;;;8.07;1.90;;;;;;;27.61;40.95;99468.91;8174511;29;20001;-74
2022/05/20 13:22:06;;;;;;;5.55;2.58;;;;;;;27.51;41.79;99470.59;8186886;29;20058;-75
2022/05/20 13:26:19;;;;;;;4.43;2.22;;;;;;;27.77;42.29;99466.34;8212720;28;20093;-74
2022/05/20 13:30:24;;;;;;;5.10;2.38;;;;;;;28.41;40.61;99457.16;8188539;28;20535;-74
2022/05/20 13:34:36;;;;;;;6.80;2.30;;;;;;;29.51;38.54;99464.41;8211367;28;20050;-73
2022/05/20 13:38:51;;;;;;;5.63;2.15;;;;;;;29.87;37.70;99452.56;8203788;28;20051;-74
2022/05/20 13:42:53;;;;;;;5.38;2.20;;;;;;;30.95;35.96;99436.50;8202968;28;20569;-74
2022/05/20 13:51:14;;;;;;;4.68;2.08;;;;;;;31.62;35.10;99433.94;8213323;28;20131;-73
2022/05/20 13:55:16;;;;;;;4.47;2.17;;;;;;;32.15;34.51;99421.94;8212851;28;20125;-74
2022/05/20 13:59:31;;;;;;;4.13;1.95;;;;;;;33.08;32.20;99403.66;8210820;28;20491;-73
2022/05/20 14:03:34;;;;;;;6.78;2.10;;;;;;;33.57;31.58;99417.13;8187617;28;20054;-74
2022/05/20 14:07:38;;;;;;;3.78;2.10;;;;;;;34.11;30.20;99399.03;8178844;28;20533;-74
2022/05/20 14:11:42;;;;;;;4.10;1.98;;;;;;;32.77;32.98;99399.97;8203605;28;20061;-75
2022/05/20 14:15:55;;;;;;;4.55;2.03;;;;;;;34.10;30.31;99391.91;8175935;29;20110;-74
2022/05/20 14:20:00;;;;;;;4.20;1.92;;;;;;;34.48;29.93;99383.91;8174941;29;20047;-74
2022/05/20 14:24:03;;;;;;;6.07;2.10;;;;;;;35.17;29.01;99372.13;8192964;28;20400;-74
2022/05/20 14:28:18;;;;;;;3.78;2.15;;;;;;;35.64;28.64;99374.41;8184849;29;20538;-74
2022/05/20 14:32:19;;;;;;;3.95;2.05;;;;;;;36.34;27.34;99383.56;8200225;28;20071;-74
2022/05/20 14:36:21;;;;;;;5.43;2.03;;;;;;;37.13;25.60;99370.66;8210645;28;20063;-74
2022/05/20 14:40:27;;;;;;;8.30;2.17;;;;;;;37.94;26.06;99371.06;8183853;28;20047;-75
2022/05/20 14:44:32;;;;;;;7.70;2.25;;;;;;;37.47;25.50;99362.84;8169409;29;20488;-74
2022/05/20 14:48:42;;;;;;;6.07;2.00;;;;;;;36.92;25.70;99366.13;8215029;28;20055;-74
2022/05/20 14:52:48;;;;;;;2.72;1.83;;;;;;;37.05;25.50;99346.94;8176534;28;20075;-74
2022/05/20 14:56:50;;;;;;;6.70;2.08;;;;;;;37.08;25.30;99357.25;8182960;28;20479;-75
2022/05/20 15:00:59;;;;;;;3.70;1.92;;;;;;;37.37;25.20;99338.84;8170140;29;20449;-71
2022/05/20 15:04:59;;;;;;;6.43;2.03;;;;;;;37.02;25.60;99342.28;8182293;28;20138;-72
2022/05/20 15:09:01;;;;;;;4.88;2.30;;;;;;;37.11;25.57;99333.78;8210088;28;20047;-72
2022/05/20 15:13:01;;;;;;;8.60;2.13;;;;;;;36.73;25.58;99330.97;8212976;28;20537;-74
2022/05/20 15:17:03;;;;;;;3.10;1.80;;;;;;;36.46;25.91;99317.06;8216246;28;20420;-73
2022/05/20 15:21:07;;;;;;;2.72;1.83;;;;;;;36.88;25.40;99320.50;8198346;28;20508;-71
2022/05/20 15:25:09;;;;;;;3.17;1.73;;;;;;;36.83;25.43;99315.56;8207352;28;20043;-72
2022/05/20 15:29:10;;;;;;;4.53;1.90;;;;;;;35.46;26.44;99307.84;8206522;28;20043;-72
2022/05/20 15:37:33;;;;;;;11.77;1.92;;;;;;;34.13;28.81;99304.06;8207395;28;20054;-72
2022/05/20 15:41:34;;;;;;;4.35;1.73;;;;;;;34.06;28.63;99307.16;8213638;28;20059;-71
2022/05/20 15:45:35;;;;;;;6.43;1.88;;;;;;;33.19;29.81;99296.19;8221523;28;20062;-73
2022/05/20 15:49:37;;;;;;;15.27;1.90;;;;;;;33.03;31.06;99289.53;8235470;28;20043;-72
2022/05/20 15:53:39;;;;;;;4.55;1.90;;;;;;;32.72;31.30;99291.50;8205936;28;20047;-72
2022/05/20 15:57:40;;;;;;;4.82;1.80;;;;;;;32.51;32.12;99281.03;8204343;28;20103;-72
2022/05/20 16:01:43;;;;;;;5.10;2.00;;;;;;;32.10;31.73;99268.81;8208620;28;20068;-71
2022/05/20 16:05:44;;;;;;;3.17;2.05;;;;;;;31.17;33.74;99278.50;8204622;28;20681;-74
2022/05/20 16:09:49;;;;;;;2.13;1.85;;;;;;;31.03;33.60;99270.56;8207886;28;20055;-73
2022/05/20 16:13:50;;;;;;;16.48;3.13;;;;;;;30.68;34.19;99269.53;8203720;29;20387;-75
2022/05/20 16:17:51;;;;;;;8.20;2.38;;;;;;;30.32;35.59;99250.16;8205316;28;20078;-72
2022/05/20 16:21:52;;;;;;;3.22;2.10;;;;;;;29.73;35.99;99248.44;8203053;29;20384;-72
2022/05/20 16:25:58;;;;;;;3.65;2.08;;;;;;;29.40;36.88;99241.25;8222456;28;20055;-72
2022/05/20 16:29:59;;;;;;;5.72;2.40;;;;;;;29.19;37.56;99238.94;8219713;28;20043;-71
2022/05/20 16:34:01;;;;;;;7.18;2.20;;;;;;;29.26;36.88;99230.44;8204687;28;20130;-71
2022/05/20 16:38:05;;;;;;;6.43;2.50;;;;;;;29.23;37.43;99226.53;8203962;28;20093;-71
2022/05/20 16:42:06;;;;;;;3.55;2.30;;;;;;;28.83;38.37;99220.22;8203783;28;20047;-71
2022/05/20 16:46:26;;;;;;;4.28;2.63;;;;;;;28.27;39.83;99216.56;8210429;28;20057;-72
2022/05/20 16:50:34;;;;;;;7.88;2.33;;;;;;;27.98;40.16;99204.34;8203252;28;20476;-72
2022/05/20 16:54:40;;;;;;;5.20;2.67;;;;;;;27.63;41.13;99200.19;8203549;28;20206;-73
2022/05/20 17:03:02;;;;;;;8.45;2.90;;;;;;;27.49;42.17;99194.84;8203272;28;20090;-72
2022/05/20 17:07:04;;;;;;;7.82;2.78;;;;;;;27.36;42.47;99185.53;8217637;28;20138;-71
2022/05/20 17:11:06;;;;;;;8.95;2.50;;;;;;;27.20;43.06;99184.16;8203025;28;20051;-72
2022/05/20 17:15:09;;;;;;;5.70;2.50;;;;;;;27.02;43.47;99172.53;8229004;28;20051;-72
2022/05/20 17:19:11;;;;;;;6.40;2.70;;;;;;;26.83;44.09;99164.84;8234924;28;20055;-72
2022/05/20 17:27:33;;;;;;;7.82;2.92;;;;;;;26.51;44.99;99147.84;8200063;28;20051;-72
2022/05/20 17:31:35;;;;;;;7.18;2.60;;;;;;;26.26;45.85;99153.69;8217626;28;20479;-72
2022/05/20 17:35:36;;;;;;;6.32;2.67;;;;;;;26.12;46.26;99160.13;8208503;28;20043;-72
2022/05/20 17:39:38;;;;;;;4.30;2.97;;;;;;;26.13;46.65;99145.09;8199842;28;20092;-70
2022/05/20 17:43:39;;;;;;;17.80;3.30;;;;;;;26.00;46.85;99144.06;8202610;28;20133;-72
2022/05/20 17:47:40;;;;;;;26.30;3.28;;;;;;;25.91;47.11;99143.75;8201119;28;20059;-71
2022/05/20 17:51:41;;;;;;;8.85;3.50;;;;;;;25.89;47.38;99143.38;8209409;28;20134;-71
2022/05/20 17:55:42;;;;;;;7.68;3.10;;;;;;;25.80;47.42;99132.00;8221122;28;20479;-71
2022/05/20 17:59:44;;;;;;;19.90;3.45;;;;;;;25.71;48.00;99117.84;8233837;28;20046;-72
2022/05/20 18:03:46;;;;;;;8.48;3.30;;;;;;;25.55;48.87;99133.00;8234200;28;20054;-71
2022/05/20 18:07:48;;;;;;;32.67;18.33;;;;;;;25.29;49.93;99117.00;8234218;28;20051;-71
2022/05/20 18:12:09;;;;;;;32.58;23.17;;;;;;;25.05;51.15;99115.22;8232473;28;20062;-70
2022/05/20 18:16:14;;;;;;;42.13;25.23;;;;;;;24.83;51.96;99109.78;8233624;28;20051;-70
2022/05/20 18:20:15;;;;;;;54.88;33.08;;;;;;;24.63;52.74;99105.97;8233603;28;20055;-71
2022/05/20 18:24:18;;;;;;;41.63;25.95;;;;;;;24.42;53.59;99078.47;8231319;28;20065;-72
2022/05/20 18:28:19;;;;;;;50.88;29.33;;;;;;;24.22;54.05;99077.34;8201449;28;20056;-72
2022/05/20 18:32:26;;;;;;;38.72;24.85;;;;;;;24.06;54.61;99066.72;8201392;28;20565;-72
2022/05/20 18:40:49;;;;;;;43.63;22.08;;;;;;;23.63;56.00;99044.03;8200446;29;20059;-74
2022/05/20 18:44:50;;;;;;;137.13;72.60;;;;;;;23.42;56.61;99030.25;8198911;28;20134;-73
2022/05/20 18:48:51;;;;;;;113.95;60.65;;;;;;;23.25;57.01;99022.78;8216467;28;20105;-72
2022/05/20 18:52:53;;;;;;;57.13;26.00;;;;;;;23.06;57.60;99005.47;8207808;28;20472;-74
2022/05/20 18:56:54;;;;;;;33.70;16.88;;;;;;;22.88;58.27;99001.94;8201635;28;20051;-74
2022/05/20 19:00:55;;;;;;;23.63;12.10;;;;;;;22.72;58.63;98987.78;8204003;28;20094;-73
2022/05/20 19:04:57;;;;;;;62.17;25.73;;;;;;;22.56;59.16;98976.34;8207537;28;20058;-73
2022/05/20 19:08:58;;;;;;;41.95;19.88;;;;;;;22.40;59.40;98962.16;8221291;28;20055;-74
2022/05/20 19:12:59;;;;;;;32.25;17.17;;;;;;;22.26;60.14;98963.69;8206706;28;20051;-73
2022/05/20 19:17:03;;;;;;;33.00;13.95;;;;;;;22.13;60.39;98954.25;8204700;28;20050;-72
2022/05/20 19:21:05;;;;;;;82.90;34.55;;;;;;;21.98;60.77;98947.13;8206018;28;20699;-73
2022/05/20 19:25:07;;;;;;;62.83;26.40;;;;;;;21.88;60.81;98947.84;8206146;28;20080;-73
2022/05/20 19:29:09;;;;;;;49.33;20.85;;;;;;;21.73;61.31;98935.25;8206284;28;20061;-73
2022/05/20 19:33:10;;;;;;;39.22;19.13;;;;;;;21.64;61.11;98926.53;8203869;28;20052;-72
2022/05/20 19:37:12;;;;;;;38.08;16.50;;;;;;;21.62;61.30;98928.91;8205854;28;20043;-73
2022/05/20 19:41:13;;;;;;;30.63;14.35;;;;;;;21.58;61.06;98933.56;8206051;28;20066;-74
2022/05/20 19:45:15;;;;;;;25.48;12.90;;;;;;;21.49;61.21;98915.50;8206243;28;20047;-74
2022/05/20 19:49:17;;;;;;;32.10;14.27;;;;;;;21.40;61.37;98912.31;8203893;28;20051;-73
2022/05/20 19:53:18;;;;;;;30.05;12.52;;;;;;;21.37;61.20;98882.84;8205131;28;20059;-73
2022/05/20 20:01:41;;;;;;;22.15;10.80;;;;;;;21.40;61.80;98873.88;8181926;29;20062;-73
2022/05/20 20:05:43;;;;;;;27.17;12.77;;;;;;;21.45;61.54;98870.75;8188271;28;20514;-73
2022/05/20 20:09:44;;;;;;;32.50;12.75;;;;;;;21.53;61.40;98865.25;8188353;28;20136;-74
2022/05/20 20:13:45;;;;;;;21.67;9.10;;;;;;;21.60;61.52;98870.78;8178349;29;20043;-73
2022/05/20 20:17:47;;;;;;;16.25;7.15;;;;;;;21.71;61.71;98850.41;8182600;29;20075;-74
2022/05/20 20:26:10;;;;;;;20.92;7.57;;;;;;;21.74;63.40;98826.84;8180756;28;20060;-73
2022/05/20 20:30:11;;;;;;;14.90;8.02;;;;;;;21.84;63.30;98801.34;8182178;28;20082;-75